Prospect Creek, Prospect Cree, AK

11:08 PM AKDT on October 23, 2014 (GMT -0800)
Bettles | Change Station
CLOSE
Current Station
Airport
Location: Bettles,
Elevation: 643 ft
Nearby Weather Stations

Elev 643 ft 66.91 °N, 151.53 °W | Updated 15 minutes ago

Overcast
Overcast
20 °F
Feels Like 20 °F
N
0
Wind Variable Wind from North

Today
High -- | Low -- °F
--% Chance of Precip.
Yesterday
High -- | Low -- °F
Precip. -- in
9:31 AM 6:01 PM
New Moon, 0% visible
Pressure 29.83 in
Visibility 10.0 miles
Clouds Few 1600 ft
Scattered Clouds 2300 ft
Overcast 3200 ft
Dew Point 15 °F
Humidity 81%
Rainfall 0.00 in
Snow Depth 1 in
UV 0 out of 12
Pollen Not available.
Air Quality Not available.
Flu Activity Sporadic
METAR PABT 240653Z 00000KT 10SM FEW016 SCT023 OVC032 M07/M09 A2978 RMK AO2 SLP099 T10671094 $

More Conditions Fewer Conditions

Pressure 29.83 in
Visibility 10.0 miles
Clouds Few 1600 ft
Scattered Clouds 2300 ft
Overcast 3200 ft
Dew Point 15 °F
Humidity 81%
Rainfall 0.00 in
Snow Depth 1 in
UV 0 out of 12
Pollen Not available.
Air Quality Not available.
Flu Activity Sporadic
METAR PABT 240653Z 00000KT 10SM FEW016 SCT023 OVC032 M07/M09 A2978 RMK AO2 SLP099 T10671094 $

More Conditions Fewer Conditions

10-Day Weather Forecast

Almanac

Astronomy

Oct. 23, 2014 Rise Set
Actual Time 9:31 AM AKDT 6:01 PM AKDT
Civil Twilight 8:34 AM AKDT 6:57 PM AKDT
Nautical Twilight 7:32 AM AKDT 7:59 PM AKDT
Astronomical Twilight 6:30 AM AKDT 9:00 PM AKDT
Moon 9:17 AM AKDT (10/23) 6:04 PM AKDT (10/23)
Length of Visible Light 10h 23m
Length of Day
8h 30m
Tomorrow will be 7m 33s shorter.
New Moon, 0% of the Moon is Illuminated
Oct 24
New Moon
Oct 30
First Quarter
Nov 6
Full
Nov 14
Last Quarter
Nov 22
New

Community

WunderPhotos

Upload Photos

1,764,510 photos uploaded!

WunderBlogs® & News

Nearby

Snow Depth

Station Depth Elevation
Gobblers Knob 1 in 2030 ft
Coldfoot 5 in 1040 ft
Atigun Pass 16 in 4800 ft
Imnaviat Creek 19 in 3050 ft
Fort Yukon 3 in 430 ft

Earthquake Activity

City Distance Mag. Time & Date
No recent earthquake activity has been reported nearby.
Minimum magnitude displayed is 2.5.

Coastal Water Temperatures

Place Temperature
No Stations Reporting

Nearby Weather Stations